Terminal Aerodrome Forecast
Issued by NWS Charleston, WV

Home | Current Version | Previous Version | Text Only | Print | Product List | Glossary On
Versions: 1 2 3 4 5 6 7 8 9 10 11 12 13 14 15 16 17 18 19 20 21 22 23 24 25 26 27 28 29 30
000
FTUS41 KRLX 301100
TAFHTS
TAF
KHTS 301122Z 3012/3112 00000KT 3SM BR SCT005
      TEMPO 3012/3013 2SM BR
     FM301400 27004KT 6SM BR SCT070
     FM301500 27005KT P6SM SCT090
     FM301900 28006KT P6SM BKN050
     FM302300 27004KT P6SM SCT080
     FM310200 00000KT P6SM SCT060
     FM310600 00000KT 3SM BR SCT060=

USA.gov is the U.S. government's official web portal to all federal, state and local government web resources and services.